createdAt,value
2022-10-23T00:01:18.650Z,92.04
2022-10-23T00:03:46.226Z,91.81
2022-10-23T00:06:13.451Z,91.81
2022-10-23T00:08:40.547Z,91.99
2022-10-23T00:11:09.341Z,91.93
2022-10-23T00:13:36.303Z,91.66
2022-10-23T00:16:02.851Z,92.06
2022-10-23T00:18:29.519Z,92.07
2022-10-23T00:20:56.783Z,91.61
2022-10-23T00:23:23.566Z,91.36
2022-10-23T00:25:50.423Z,91.44
2022-10-23T00:28:17.148Z,91.29
2022-10-23T00:30:43.938Z,91.71
2022-10-23T00:33:10.525Z,91.32
2022-10-23T00:35:41.186Z,91.45
2022-10-23T00:38:08.733Z,91.78
2022-10-23T00:40:36.685Z,91.74
2022-10-23T00:43:03.561Z,91.71
2022-10-23T00:45:34.399Z,91.93
2022-10-23T00:48:02.192Z,91.63
2022-10-23T00:50:31.677Z,91.50
2022-10-23T00:53:02.045Z,91.46
2022-10-23T00:55:30.212Z,90.77
2022-10-23T00:57:56.972Z,91.38
2022-10-23T01:00:28.971Z,91.17
2022-10-23T01:02:57.471Z,91.00
2022-10-23T01:05:34.997Z,91.49
2022-10-23T01:08:40.404Z,91.42
2022-10-23T01:11:22.106Z,91.29
2022-10-23T01:14:16.659Z,90.89
2022-10-23T01:17:01.904Z,90.86
2022-10-23T01:19:45.929Z,90.52
2022-10-23T01:22:40.031Z,90.68
2022-10-23T01:25:35.774Z,91.07
2022-10-23T01:28:07.258Z,91.37
2022-10-23T01:30:37.769Z,90.72
2022-10-23T01:33:12.089Z,90.51
2022-10-23T01:35:49.157Z,90.68
2022-10-23T01:38:32.119Z,91.08
2022-10-23T01:41:03.442Z,91.16
2022-10-23T01:43:36.150Z,91.01
2022-10-23T01:46:07.525Z,91.19
2022-10-23T01:48:36.253Z,90.99
2022-10-23T01:51:07.545Z,90.87
2022-10-23T01:53:37.758Z,90.68
2022-10-23T01:56:08.671Z,90.46
2022-10-23T01:58:36.470Z,90.49
2022-10-23T02:01:05.997Z,90.52
2022-10-23T02:03:35.447Z,90.77
2022-10-23T02:06:01.967Z,90.95
2022-10-23T02:08:28.553Z,90.81
2022-10-23T02:11:04.012Z,90.63
2022-10-23T02:13:53.444Z,90.79
2022-10-23T02:16:29.378Z,91.15
2022-10-23T02:19:13.849Z,90.32
2022-10-23T02:21:54.719Z,89.94
2022-10-23T02:24:45.841Z,89.76
2022-10-23T02:27:40.962Z,89.50
2022-10-23T02:30:09.803Z,90.05
2022-10-23T02:32:41.333Z,90.78
2022-10-23T02:35:08.801Z,90.33
2022-10-23T02:37:35.092Z,90.54
2022-10-23T02:40:02.049Z,91.48
2022-10-23T02:42:35.725Z,91.31
2022-10-23T02:45:14.170Z,91.98
2022-10-23T02:48:01.134Z,92.19
2022-10-23T02:51:02.888Z,91.98
2022-10-23T02:53:43.428Z,92.45
2022-10-23T02:56:37.969Z,92.49
2022-10-23T02:59:16.801Z,92.69
2022-10-23T03:01:53.313Z,92.37
2022-10-23T03:04:23.556Z,92.60
2022-10-23T03:06:51.360Z,92.65
2022-10-23T03:09:18.253Z,93.07
2022-10-23T03:11:44.990Z,92.76
2022-10-23T03:14:14.518Z,93.22
2022-10-23T03:16:40.913Z,92.93
2022-10-23T03:19:07.329Z,92.86
2022-10-23T03:21:33.741Z,93.16
2022-10-23T03:24:00.462Z,92.99
2022-10-23T03:26:26.750Z,92.84
2022-10-23T03:28:53.149Z,92.90
2022-10-23T03:31:19.504Z,92.58
2022-10-23T03:33:45.802Z,92.28
2022-10-23T03:36:12.455Z,92.00
2022-10-23T03:38:38.882Z,92.06
2022-10-23T03:41:05.574Z,92.25
2022-10-23T03:43:32.227Z,92.41
2022-10-23T03:45:58.745Z,93.21
2022-10-23T03:48:25.044Z,93.09
2022-10-23T03:50:53.000Z,93.01
2022-10-23T03:53:20.400Z,92.81
2022-10-23T03:55:46.744Z,92.82
2022-10-23T03:58:13.277Z,93.11
2022-10-23T04:00:39.715Z,93.53
2022-10-23T04:03:06.093Z,93.41
2022-10-23T04:05:32.427Z,93.56
2022-10-23T04:07:58.841Z,93.84
2022-10-23T04:10:25.525Z,93.48
2022-10-23T04:12:51.837Z,93.45
2022-10-23T04:15:18.143Z,93.53
2022-10-23T04:17:44.638Z,93.72
2022-10-23T04:20:10.945Z,93.58
2022-10-23T04:22:37.237Z,93.68
2022-10-23T04:25:04.061Z,93.91
2022-10-23T04:27:30.977Z,93.63
2022-10-23T04:29:59.102Z,93.74
2022-10-23T04:32:26.144Z,93.46
2022-10-23T04:34:52.808Z,93.15
2022-10-23T04:37:19.198Z,93.11
2022-10-23T04:39:45.827Z,92.87
2022-10-23T04:42:12.132Z,92.58
2022-10-23T04:44:38.411Z,92.66
2022-10-23T04:47:05.159Z,92.61
2022-10-23T04:49:31.441Z,93.00
2022-10-23T04:51:58.149Z,93.28
2022-10-23T04:54:24.448Z,93.44
2022-10-23T04:56:50.838Z,93.40
2022-10-23T04:59:17.259Z,93.54
2022-10-23T05:01:43.708Z,93.30
2022-10-23T05:04:10.230Z,93.24
2022-10-23T05:06:36.898Z,93.62
2022-10-23T05:09:03.384Z,93.31
2022-10-23T05:11:29.751Z,93.41
2022-10-23T05:13:56.032Z,93.38
2022-10-23T05:16:57.589Z,93.45
2022-10-23T05:19:28.898Z,93.54
2022-10-23T05:21:56.770Z,93.74
2022-10-23T05:24:23.878Z,93.77
2022-10-23T05:26:51.161Z,93.72
2022-10-23T05:29:18.030Z,93.54
2022-10-23T05:31:44.608Z,93.60
2022-10-23T05:34:14.130Z,93.72
2022-10-23T05:36:40.512Z,93.47
2022-10-23T05:39:06.885Z,93.64
2022-10-23T05:41:33.230Z,93.67
2022-10-23T05:43:59.879Z,93.15
2022-10-23T05:46:26.173Z,92.84
2022-10-23T05:48:52.605Z,92.54
2022-10-23T05:51:21.017Z,92.06
2022-10-23T05:53:51.384Z,92.41
2022-10-23T05:56:18.433Z,92.74
2022-10-23T05:58:45.696Z,92.86
2022-10-23T06:01:14.017Z,93.00
2022-10-23T06:03:41.209Z,93.01
2022-10-23T06:06:08.263Z,92.43
2022-10-23T06:08:35.268Z,92.26
2022-10-23T06:11:09.500Z,92.48
2022-10-23T06:13:36.584Z,92.85
2022-10-23T06:16:28.981Z,93.25
2022-10-23T06:18:55.473Z,92.92
2022-10-23T06:21:21.879Z,92.92
2022-10-23T06:23:48.232Z,91.88
2022-10-23T06:26:16.827Z,92.05
2022-10-23T06:28:43.436Z,92.45
2022-10-23T06:31:13.009Z,92.55
2022-10-23T06:33:40.345Z,92.66
2022-10-23T06:36:07.820Z,92.23
2022-10-23T06:38:34.101Z,92.49
2022-10-23T06:41:00.543Z,92.63
2022-10-23T06:43:26.922Z,92.48
2022-10-23T06:45:53.252Z,92.96
2022-10-23T06:48:19.602Z,92.74
2022-10-23T06:50:46.001Z,92.96
2022-10-23T06:53:12.501Z,93.53
2022-10-23T06:55:39.042Z,93.16
2022-10-23T06:58:07.169Z,93.37
2022-10-23T07:00:33.464Z,92.63
2022-10-23T07:02:59.963Z,93.01
2022-10-23T07:05:26.249Z,92.94
2022-10-23T07:07:52.777Z,92.15
2022-10-23T07:10:19.186Z,91.44
2022-10-23T07:12:45.931Z,91.76
2022-10-23T07:15:12.399Z,92.01
2022-10-23T07:17:39.088Z,92.05
2022-10-23T07:20:05.574Z,91.74
2022-10-23T07:22:31.999Z,91.88
2022-10-23T07:24:58.324Z,91.65
2022-10-23T07:27:25.487Z,91.50
2022-10-23T07:29:52.888Z,91.80
2022-10-23T07:32:19.213Z,91.86
2022-10-23T07:34:45.724Z,92.51
2022-10-23T07:37:13.219Z,92.46
2022-10-23T07:39:39.710Z,92.17
2022-10-23T07:42:06.289Z,92.19
2022-10-23T07:44:32.751Z,92.22
2022-10-23T07:46:59.340Z,92.25
2022-10-23T07:49:25.951Z,92.01
2022-10-23T07:51:52.327Z,91.94
2022-10-23T07:54:18.745Z,91.40
2022-10-23T07:56:45.230Z,91.93
2022-10-23T07:59:13.000Z,91.83
2022-10-23T08:01:43.089Z,91.56
2022-10-23T08:04:10.597Z,91.33
2022-10-23T08:06:37.138Z,91.99
2022-10-23T08:09:06.247Z,91.76
2022-10-23T08:11:33.312Z,90.66
2022-10-23T08:13:59.749Z,91.12
2022-10-23T08:16:26.115Z,92.11
2022-10-23T08:18:52.586Z,92.18
2022-10-23T08:21:20.073Z,91.65
2022-10-23T08:23:46.452Z,91.49
2022-10-23T08:26:12.960Z,91.32
2022-10-23T08:28:39.426Z,91.38
2022-10-23T08:31:23.816Z,90.80
2022-10-23T08:33:50.670Z,90.22
2022-10-23T08:36:22.996Z,90.39
2022-10-23T08:38:49.989Z,89.80
2022-10-23T08:41:41.053Z,89.35
2022-10-23T08:44:19.737Z,89.07
2022-10-23T08:46:50.567Z,89.27
2022-10-23T08:49:43.780Z,88.94
2022-10-23T08:52:17.113Z,88.93
2022-10-23T08:54:52.844Z,88.89
2022-10-23T08:57:23.170Z,88.92
2022-10-23T09:00:01.564Z,88.21
2022-10-23T09:02:32.620Z,87.98
2022-10-23T09:04:59.400Z,87.60
2022-10-23T09:07:56.873Z,88.24
2022-10-23T09:10:26.368Z,88.05
2022-10-23T09:12:52.704Z,86.91
2022-10-23T09:15:40.172Z,87.91
2022-10-23T09:18:12.620Z,88.30
2022-10-23T09:20:41.357Z,88.18
2022-10-23T09:23:20.152Z,88.28
2022-10-23T09:25:48.078Z,88.31
2022-10-23T09:28:32.844Z,88.35
2022-10-23T09:31:10.446Z,88.64
2022-10-23T09:33:36.892Z,88.40
2022-10-23T09:36:17.878Z,88.87
2022-10-23T09:38:46.929Z,88.90
2022-10-23T09:41:34.873Z,89.27
2022-10-23T09:44:07.341Z,88.56
2022-10-23T09:46:42.428Z,88.11
2022-10-23T09:49:27.014Z,87.82
2022-10-23T09:52:01.242Z,87.33
2022-10-23T09:54:30.480Z,87.01
2022-10-23T09:56:59.989Z,86.49
2022-10-23T09:59:32.491Z,85.38
2022-10-23T10:02:01.270Z,85.15
2022-10-23T10:04:38.526Z,79.09
2022-10-23T10:07:29.364Z,77.06
2022-10-23T10:09:58.348Z,78.79
2022-10-23T10:12:46.499Z,79.35
2022-10-23T10:15:26.351Z,78.85
2022-10-23T10:17:57.256Z,76.20
2022-10-23T10:20:46.582Z,77.07
2022-10-23T10:23:34.734Z,77.15
2022-10-23T10:26:23.041Z,75.31
2022-10-23T10:29:30.726Z,73.36
2022-10-23T10:32:24.491Z,69.97
2022-10-23T10:34:59.051Z,68.78
2022-10-23T10:37:37.809Z,68.10
2022-10-23T10:40:19.901Z,66.09
2022-10-23T10:42:49.122Z,63.63
2022-10-23T10:45:15.370Z,63.01
2022-10-23T10:47:54.240Z,60.51
2022-10-23T10:50:29.576Z,61.63
2022-10-23T10:53:14.651Z,60.44
2022-10-23T10:55:42.090Z,61.70
2022-10-23T10:58:20.178Z,62.66
2022-10-23T11:00:50.192Z,62.63
2022-10-23T11:03:36.167Z,62.88
2022-10-23T11:06:13.215Z,61.12
2022-10-23T11:08:56.142Z,60.74
2022-10-23T11:11:32.040Z,62.52
2022-10-23T11:13:59.068Z,62.14
2022-10-23T11:16:34.447Z,61.14
2022-10-23T11:19:30.780Z,61.47
2022-10-23T11:22:07.130Z,61.59
2022-10-23T11:24:53.458Z,59.38
2022-10-23T11:27:45.529Z,60.06
2022-10-23T11:30:55.479Z,60.66
2022-10-23T11:33:38.355Z,62.24
2022-10-23T11:36:16.982Z,60.12
2022-10-23T11:38:47.419Z,60.52
2022-10-23T11:41:26.744Z,61.24
2022-10-23T11:43:55.432Z,62.29
2022-10-23T11:46:21.737Z,60.23
2022-10-23T11:48:49.140Z,61.83
2022-10-23T11:51:35.024Z,61.48
2022-10-23T11:54:07.502Z,61.12
2022-10-23T11:56:34.117Z,61.89
2022-10-23T11:59:21.598Z,62.01
2022-10-23T12:01:50.221Z,61.82
2022-10-23T12:04:22.216Z,63.20
2022-10-23T12:06:52.876Z,61.65
2022-10-23T12:09:26.395Z,62.19
2022-10-23T12:12:05.096Z,62.08
2022-10-23T12:14:49.601Z,62.12
2022-10-23T12:17:25.007Z,60.81
2022-10-23T12:20:02.175Z,60.46
2022-10-23T12:22:40.387Z,60.53
2022-10-23T12:25:31.701Z,59.19
2022-10-23T12:28:08.635Z,59.49
2022-10-23T12:33:45.757Z,61.86
2022-10-23T12:36:12.112Z,61.03
2022-10-23T12:38:48.628Z,60.80
2022-10-23T12:41:28.790Z,61.19
2022-10-23T12:43:57.698Z,61.65
2022-10-23T12:46:30.807Z,61.54
2022-10-23T12:48:58.432Z,61.63
2022-10-23T12:51:35.465Z,61.99
2022-10-23T12:54:03.269Z,62.22
2022-10-23T12:56:37.110Z,62.87
2022-10-23T12:59:05.277Z,62.43
2022-10-23T13:01:34.554Z,61.76
2022-10-23T13:04:21.522Z,62.15
2022-10-23T13:06:50.095Z,63.24
2022-10-23T13:09:39.449Z,62.61
2022-10-23T13:12:07.604Z,62.91
2022-10-23T13:14:39.394Z,63.25
2022-10-23T13:17:10.962Z,63.63
2022-10-23T13:19:37.765Z,63.14
2022-10-23T13:22:20.871Z,62.90
2022-10-23T13:24:47.640Z,63.21
2022-10-23T13:27:34.672Z,63.57
2022-10-23T13:30:01.091Z,63.61
2022-10-23T13:32:30.449Z,64.25
2022-10-23T13:35:10.360Z,64.52
2022-10-23T13:40:27.465Z,65.75
2022-10-23T13:42:55.660Z,64.90
2022-10-23T13:45:24.889Z,65.70
2022-10-23T13:47:51.881Z,65.75
2022-10-23T13:50:18.754Z,66.15
2022-10-23T13:52:46.157Z,66.30
2022-10-23T13:55:23.782Z,66.06
2022-10-23T13:57:50.549Z,66.60
2022-10-23T14:00:17.720Z,67.21
2022-10-23T14:02:44.721Z,67.53
2022-10-23T14:05:12.045Z,67.39
2022-10-23T14:07:38.699Z,68.18
2022-10-23T14:10:05.811Z,68.44
2022-10-23T14:12:39.439Z,68.10
2022-10-23T14:15:06.612Z,68.40
2022-10-23T14:17:34.837Z,68.73
2022-10-23T14:20:04.005Z,68.99
2022-10-23T14:22:32.211Z,68.87
2022-10-23T14:24:58.943Z,68.83
2022-10-23T14:27:25.247Z,68.88
2022-10-23T14:29:51.583Z,68.70
2022-10-23T14:32:19.060Z,68.93
2022-10-23T14:34:51.198Z,68.69
2022-10-23T14:37:17.538Z,68.50
2022-10-23T14:39:48.922Z,68.62
2022-10-23T14:42:16.543Z,68.12
2022-10-23T14:44:42.875Z,66.20
2022-10-23T14:47:09.204Z,66.57
2022-10-23T14:49:35.632Z,66.07
2022-10-23T14:52:02.022Z,65.96
2022-10-23T14:54:28.365Z,66.04
2022-10-23T14:56:54.789Z,66.62
2022-10-23T14:59:21.228Z,66.48
2022-10-23T15:01:48.580Z,67.27
2022-10-23T15:04:15.976Z,67.24
2022-10-23T15:06:43.252Z,67.72
2022-10-23T15:09:09.786Z,67.33
2022-10-23T15:11:36.455Z,68.61
2022-10-23T15:14:03.150Z,69.81
2022-10-23T15:16:29.470Z,70.46
2022-10-23T15:18:55.798Z,70.98
2022-10-23T15:21:22.712Z,72.84
2022-10-23T15:23:49.508Z,73.44
2022-10-23T15:26:19.979Z,72.09
2022-10-23T15:28:47.528Z,74.16
2022-10-23T15:31:29.389Z,74.83
2022-10-23T15:33:59.160Z,75.26
2022-10-23T15:36:26.543Z,75.63
2022-10-23T15:38:52.945Z,76.13
2022-10-23T15:41:28.243Z,76.68
2022-10-23T15:43:54.861Z,77.35
2022-10-23T15:46:21.860Z,77.63
2022-10-23T15:48:48.170Z,76.74
2022-10-23T15:51:14.560Z,76.67
2022-10-23T15:53:41.062Z,73.12
2022-10-23T15:56:07.450Z,71.92
2022-10-23T15:58:33.915Z,72.28
2022-10-23T16:01:04.459Z,72.13
2022-10-23T16:03:30.932Z,72.42
2022-10-23T16:05:57.248Z,72.67
2022-10-23T16:08:23.826Z,73.40
2022-10-23T16:10:50.249Z,74.57
2022-10-23T16:13:16.623Z,74.91
2022-10-23T16:15:42.966Z,75.56
2022-10-23T16:18:10.262Z,75.64
2022-10-23T16:20:40.274Z,76.52
2022-10-23T16:23:06.710Z,76.79
2022-10-23T16:25:36.275Z,77.15
2022-10-23T16:28:03.424Z,77.87
2022-10-23T16:30:29.915Z,77.60
2022-10-23T16:32:56.393Z,78.27
2022-10-23T16:35:23.054Z,78.57
2022-10-23T16:37:49.587Z,79.76
2022-10-23T16:40:16.291Z,79.81
2022-10-23T16:42:43.087Z,79.35
2022-10-23T16:45:10.343Z,79.47
2022-10-23T16:47:36.690Z,79.47
2022-10-23T16:50:03.328Z,78.92
2022-10-23T16:52:29.828Z,78.83
2022-10-23T16:54:56.169Z,78.96
2022-10-23T16:57:22.487Z,79.08
2022-10-23T16:59:48.890Z,79.54
2022-10-23T17:02:15.310Z,79.84
2022-10-23T17:04:41.749Z,80.08
2022-10-23T17:07:08.362Z,79.67
2022-10-23T17:09:34.789Z,78.59
2022-10-23T17:12:01.163Z,79.18
2022-10-23T17:14:27.665Z,79.69
2022-10-23T17:16:55.029Z,78.99
2022-10-23T17:22:09.638Z,80.11
2022-10-23T17:24:37.474Z,80.33
2022-10-23T17:27:04.153Z,77.72
2022-10-23T17:29:30.662Z,76.51
2022-10-23T17:31:57.099Z,74.71
2022-10-23T17:34:23.908Z,71.98
2022-10-23T17:36:52.542Z,71.83
2022-10-23T17:39:24.122Z,70.31
2022-10-23T17:41:50.807Z,70.94
2022-10-23T17:44:17.382Z,70.48
2022-10-23T17:46:43.841Z,69.72
2022-10-23T17:49:11.199Z,69.51
2022-10-23T17:51:37.927Z,70.67
2022-10-23T17:54:07.314Z,70.17
2022-10-23T17:56:35.628Z,69.82
2022-10-23T17:59:06.726Z,69.23
2022-10-23T18:01:33.679Z,67.12
2022-10-23T18:04:02.517Z,68.70
2022-10-23T18:06:32.131Z,68.90
2022-10-23T18:08:59.959Z,68.79
2022-10-23T18:11:30.203Z,68.52
2022-10-23T18:13:57.544Z,68.09
2022-10-23T18:16:24.480Z,67.96
2022-10-23T18:18:50.825Z,68.07
2022-10-23T18:21:19.063Z,67.78
2022-10-23T18:23:45.715Z,67.86
2022-10-23T18:26:28.073Z,68.37
2022-10-23T18:28:57.235Z,68.70
2022-10-23T18:31:25.334Z,68.96
2022-10-23T18:34:03.143Z,69.28
2022-10-23T18:36:33.029Z,69.31
2022-10-23T18:38:59.926Z,69.05
2022-10-23T18:41:26.845Z,68.97
2022-10-23T18:43:54.524Z,68.25
2022-10-23T18:46:21.104Z,69.12
2022-10-23T18:48:48.652Z,69.01
2022-10-23T18:51:21.050Z,69.39
2022-10-23T18:53:47.693Z,69.46
2022-10-23T18:56:19.054Z,68.52
2022-10-23T18:58:45.349Z,69.15
2022-10-23T19:01:11.995Z,68.94
2022-10-23T19:03:38.395Z,68.66
2022-10-23T19:06:06.932Z,69.24
2022-10-23T19:08:36.438Z,69.84
2022-10-23T19:11:02.815Z,69.81
2022-10-23T19:13:29.232Z,69.87
2022-10-23T19:15:55.722Z,70.86
2022-10-23T19:18:22.335Z,71.63
2022-10-23T19:20:48.947Z,72.88
2022-10-23T19:23:16.116Z,74.23
2022-10-23T19:25:45.322Z,74.86
2022-10-23T19:28:11.741Z,75.53
2022-10-23T19:30:38.234Z,77.96
2022-10-23T19:33:04.694Z,78.01
2022-10-23T19:35:31.000Z,79.94
2022-10-23T19:37:57.420Z,80.63
2022-10-23T19:40:27.298Z,83.41
2022-10-23T19:42:53.933Z,84.99
2022-10-23T19:45:20.631Z,86.00
2022-10-23T19:47:47.315Z,87.99
2022-10-23T19:50:14.409Z,89.51
2022-10-23T19:52:40.994Z,90.92
2022-10-23T19:55:08.226Z,91.97
2022-10-23T19:57:34.822Z,91.39
2022-10-23T20:00:01.966Z,91.92
2022-10-23T20:02:28.887Z,92.34
2022-10-23T20:04:55.792Z,94.47
2022-10-23T20:07:22.170Z,94.90
2022-10-23T20:09:48.696Z,96.18
2022-10-23T20:12:15.295Z,96.71
2022-10-23T20:14:41.662Z,96.62
2022-10-23T20:17:08.022Z,97.50
2022-10-23T20:19:34.537Z,97.82
2022-10-23T20:22:00.978Z,98.50
2022-10-23T20:24:27.521Z,98.63
2022-10-23T20:26:55.601Z,99.13
2022-10-23T20:29:23.798Z,99.13
2022-10-23T20:31:51.393Z,99.26
2022-10-23T20:34:17.902Z,99.78
2022-10-23T20:36:47.270Z,100.00
2022-10-23T20:39:20.978Z,100.00
2022-10-23T20:41:48.027Z,100.00
2022-10-23T20:46:48.724Z,100.00
2022-10-23T20:49:15.864Z,100.00
2022-10-23T20:51:42.850Z,100.00
2022-10-23T20:54:09.330Z,100.00
2022-10-23T20:56:38.195Z,100.00
2022-10-23T20:59:11.497Z,100.00
2022-10-23T21:01:47.776Z,100.00
2022-10-23T21:04:14.176Z,100.00
2022-10-23T21:06:57.642Z,100.00
2022-10-23T21:09:29.155Z,100.00
2022-10-23T21:11:55.513Z,100.00
2022-10-23T21:14:21.892Z,100.00
2022-10-23T21:16:48.259Z,100.00
2022-10-23T21:19:15.549Z,100.00
2022-10-23T21:21:43.131Z,100.00
2022-10-23T21:24:13.972Z,100.00
2022-10-23T21:26:40.501Z,100.00
2022-10-23T21:29:17.884Z,100.00
2022-10-23T21:31:45.739Z,100.00
2022-10-23T21:34:12.390Z,100.00
2022-10-23T21:36:53.974Z,100.00
2022-10-23T21:39:25.322Z,100.00
2022-10-23T21:41:51.813Z,100.00
2022-10-23T21:44:18.272Z,100.00
2022-10-23T21:46:44.806Z,100.00
2022-10-23T21:49:12.093Z,100.00
2022-10-23T21:51:39.079Z,100.00
2022-10-23T21:54:08.399Z,100.00
2022-10-23T21:56:47.978Z,100.00
2022-10-23T21:59:19.935Z,100.00
2022-10-23T22:01:48.074Z,100.00
2022-10-23T22:04:15.944Z,100.00
2022-10-23T22:06:43.395Z,100.00
2022-10-23T22:09:13.560Z,100.00
2022-10-23T22:11:40.436Z,100.00
2022-10-23T22:14:07.175Z,100.00
2022-10-23T22:16:33.761Z,100.00
2022-10-23T22:19:00.150Z,100.00
2022-10-23T22:21:28.727Z,100.00
2022-10-23T22:23:57.111Z,100.00
2022-10-23T22:26:26.723Z,100.00
2022-10-23T22:28:54.901Z,100.00
2022-10-23T22:31:23.789Z,100.00
2022-10-23T22:33:51.251Z,100.00
2022-10-23T22:36:17.703Z,100.00
2022-10-23T22:38:44.764Z,100.00
2022-10-23T22:41:11.302Z,100.00
2022-10-23T22:43:37.868Z,100.00
2022-10-23T22:46:15.957Z,100.00
2022-10-23T22:48:43.053Z,100.00
2022-10-23T22:51:12.999Z,100.00
2022-10-23T22:53:39.472Z,100.00
2022-10-23T22:56:08.292Z,100.00
2022-10-23T22:58:35.160Z,100.00
2022-10-23T23:01:08.630Z,100.00
2022-10-23T23:03:36.868Z,100.00
2022-10-23T23:06:05.635Z,100.00
2022-10-23T23:08:32.992Z,100.00
2022-10-23T23:10:59.458Z,100.00
2022-10-23T23:13:27.115Z,100.00
2022-10-23T23:15:53.706Z,100.00
2022-10-23T23:18:21.021Z,100.00
2022-10-23T23:20:47.735Z,100.00
2022-10-23T23:23:14.591Z,100.00
2022-10-23T23:25:42.609Z,100.00
2022-10-23T23:28:11.550Z,100.00
2022-10-23T23:30:39.066Z,100.00
2022-10-23T23:33:05.697Z,100.00
2022-10-23T23:35:32.065Z,100.00
2022-10-23T23:37:58.904Z,100.00
2022-10-23T23:40:26.473Z,100.00
2022-10-23T23:42:52.819Z,100.00
2022-10-23T23:45:19.149Z,100.00
2022-10-23T23:47:45.779Z,100.00
2022-10-23T23:50:12.681Z,100.00
2022-10-23T23:52:39.034Z,100.00
2022-10-23T23:55:05.997Z,100.00
2022-10-23T23:57:32.635Z,100.00
2022-10-23T23:59:59.618Z,100.00
